sensor_id;sensor_type;location;lat;lon;timestamp;P1;durP1;ratioP1;P2;durP2;ratioP2
80423;SDS011;69765;47.668;19.326;2023-07-20T00:01:57;6.53;;;4.35;;
80423;SDS011;69765;47.668;19.326;2023-07-20T00:05:17;7.13;;;3.45;;
80423;SDS011;69765;47.668;19.326;2023-07-20T00:08:27;6.50;;;3.97;;
80423;SDS011;69765;47.668;19.326;2023-07-20T00:11:29;5.82;;;3.30;;
80423;SDS011;69765;47.668;19.326;2023-07-20T00:14:31;8.20;;;4.00;;
80423;SDS011;69765;47.668;19.326;2023-07-20T00:17:34;6.63;;;3.85;;
80423;SDS011;69765;47.668;19.326;2023-07-20T00:20:39;6.50;;;3.40;;
80423;SDS011;69765;47.668;19.326;2023-07-20T00:23:42;6.88;;;3.55;;
80423;SDS011;69765;47.668;19.326;2023-07-20T00:26:44;9.40;;;5.10;;
80423;SDS011;69765;47.668;19.326;2023-07-20T00:29:47;8.05;;;3.70;;
80423;SDS011;69765;47.668;19.326;2023-07-20T00:32:49;5.40;;;3.35;;
80423;SDS011;69765;47.668;19.326;2023-07-20T00:35:52;8.30;;;4.18;;
80423;SDS011;69765;47.668;19.326;2023-07-20T00:38:54;9.00;;;3.80;;
80423;SDS011;69765;47.668;19.326;2023-07-20T00:41:57;6.50;;;4.05;;
80423;SDS011;69765;47.668;19.326;2023-07-20T00:44:59;8.20;;;4.43;;
80423;SDS011;69765;47.668;19.326;2023-07-20T00:48:03;7.25;;;4.10;;
80423;SDS011;69765;47.668;19.326;2023-07-20T00:51:08;8.90;;;3.83;;
80423;SDS011;69765;47.668;19.326;2023-07-20T00:54:14;7.78;;;4.65;;
80423;SDS011;69765;47.668;19.326;2023-07-20T00:57:17;7.47;;;4.50;;
80423;SDS011;69765;47.668;19.326;2023-07-20T01:00:20;10.02;;;5.43;;
80423;SDS011;69765;47.668;19.326;2023-07-20T01:03:25;7.97;;;4.22;;
80423;SDS011;69765;47.668;19.326;2023-07-20T01:06:40;7.78;;;4.47;;
80423;SDS011;69765;47.668;19.326;2023-07-20T01:09:52;7.47;;;4.50;;
80423;SDS011;69765;47.668;19.326;2023-07-20T01:13:03;6.93;;;3.85;;
80423;SDS011;69765;47.668;19.326;2023-07-20T01:16:09;9.00;;;4.45;;
80423;SDS011;69765;47.668;19.326;2023-07-20T01:19:12;5.97;;;3.75;;
80423;SDS011;69765;47.668;19.326;2023-07-20T01:31:51;9.32;;;5.00;;
80423;SDS011;69765;47.668;19.326;2023-07-20T01:34:55;7.47;;;4.38;;
80423;SDS011;69765;47.668;19.326;2023-07-20T01:38:00;6.45;;;4.30;;
80423;SDS011;69765;47.668;19.326;2023-07-20T01:41:03;8.45;;;4.78;;
80423;SDS011;69765;47.668;19.326;2023-07-20T01:44:06;6.72;;;4.10;;
80423;SDS011;69765;47.668;19.326;2023-07-20T01:47:09;7.00;;;4.72;;
80423;SDS011;69765;47.668;19.326;2023-07-20T01:50:11;7.28;;;4.13;;
80423;SDS011;69765;47.668;19.326;2023-07-20T01:53:13;6.35;;;4.93;;
80423;SDS011;69765;47.668;19.326;2023-07-20T01:56:16;6.07;;;4.60;;
80423;SDS011;69765;47.668;19.326;2023-07-20T01:59:18;7.20;;;4.63;;
80423;SDS011;69765;47.668;19.326;2023-07-20T02:02:22;9.45;;;5.82;;
80423;SDS011;69765;47.668;19.326;2023-07-20T02:05:26;8.27;;;4.80;;
80423;SDS011;69765;47.668;19.326;2023-07-20T02:08:28;7.50;;;5.55;;
80423;SDS011;69765;47.668;19.326;2023-07-20T02:11:31;8.32;;;5.35;;
80423;SDS011;69765;47.668;19.326;2023-07-20T02:14:34;7.15;;;4.43;;
80423;SDS011;69765;47.668;19.326;2023-07-20T02:17:36;7.20;;;4.68;;
80423;SDS011;69765;47.668;19.326;2023-07-20T02:20:40;12.43;;;5.95;;
80423;SDS011;69765;47.668;19.326;2023-07-20T02:23:43;6.10;;;4.57;;
80423;SDS011;69765;47.668;19.326;2023-07-20T02:26:45;8.57;;;4.88;;
80423;SDS011;69765;47.668;19.326;2023-07-20T02:29:48;7.07;;;4.45;;
80423;SDS011;69765;47.668;19.326;2023-07-20T02:32:50;11.15;;;5.28;;
80423;SDS011;69765;47.668;19.326;2023-07-20T02:35:52;7.95;;;5.80;;
80423;SDS011;69765;47.668;19.326;2023-07-20T02:38:55;7.88;;;5.03;;
80423;SDS011;69765;47.668;19.326;2023-07-20T02:41:57;9.23;;;5.72;;
80423;SDS011;69765;47.668;19.326;2023-07-20T02:44:59;7.28;;;4.72;;
80423;SDS011;69765;47.668;19.326;2023-07-20T02:48:02;8.82;;;5.53;;
80423;SDS011;69765;47.668;19.326;2023-07-20T02:51:05;6.57;;;4.65;;
80423;SDS011;69765;47.668;19.326;2023-07-20T02:54:07;9.15;;;4.75;;
80423;SDS011;69765;47.668;19.326;2023-07-20T02:57:10;9.38;;;4.45;;
80423;SDS011;69765;47.668;19.326;2023-07-20T03:00:12;6.53;;;4.68;;
80423;SDS011;69765;47.668;19.326;2023-07-20T03:03:17;6.10;;;4.40;;
80423;SDS011;69765;47.668;19.326;2023-07-20T03:06:20;7.70;;;4.68;;
80423;SDS011;69765;47.668;19.326;2023-07-20T03:09:23;6.00;;;4.45;;
80423;SDS011;69765;47.668;19.326;2023-07-20T03:12:25;6.32;;;4.10;;
80423;SDS011;69765;47.668;19.326;2023-07-20T03:15:27;7.70;;;4.72;;
80423;SDS011;69765;47.668;19.326;2023-07-20T03:18:31;9.00;;;4.82;;
80423;SDS011;69765;47.668;19.326;2023-07-20T03:21:34;7.13;;;4.45;;
80423;SDS011;69765;47.668;19.326;2023-07-20T03:24:36;9.32;;;4.22;;
80423;SDS011;69765;47.668;19.326;2023-07-20T03:27:38;6.43;;;4.13;;
80423;SDS011;69765;47.668;19.326;2023-07-20T03:30:41;7.88;;;4.13;;
80423;SDS011;69765;47.668;19.326;2023-07-20T03:33:43;7.32;;;4.15;;
80423;SDS011;69765;47.668;19.326;2023-07-20T03:36:46;9.45;;;4.43;;
80423;SDS011;69765;47.668;19.326;2023-07-20T03:39:49;5.32;;;4.25;;
80423;SDS011;69765;47.668;19.326;2023-07-20T03:42:51;7.40;;;3.75;;
80423;SDS011;69765;47.668;19.326;2023-07-20T03:45:53;6.63;;;3.58;;
80423;SDS011;69765;47.668;19.326;2023-07-20T03:48:56;5.30;;;3.40;;
80423;SDS011;69765;47.668;19.326;2023-07-20T03:51:58;5.75;;;3.40;;
80423;SDS011;69765;47.668;19.326;2023-07-20T03:55:01;7.30;;;4.18;;
80423;SDS011;69765;47.668;19.326;2023-07-20T03:58:04;6.40;;;3.55;;
80423;SDS011;69765;47.668;19.326;2023-07-20T04:01:06;7.80;;;3.60;;
80423;SDS011;69765;47.668;19.326;2023-07-20T04:04:09;7.47;;;4.07;;
80423;SDS011;69765;47.668;19.326;2023-07-20T04:07:11;7.38;;;3.28;;
80423;SDS011;69765;47.668;19.326;2023-07-20T04:10:17;5.60;;;3.67;;
80423;SDS011;69765;47.668;19.326;2023-07-20T04:13:19;6.68;;;3.90;;
80423;SDS011;69765;47.668;19.326;2023-07-20T04:16:22;8.80;;;3.88;;
80423;SDS011;69765;47.668;19.326;2023-07-20T04:19:25;8.32;;;3.33;;
80423;SDS011;69765;47.668;19.326;2023-07-20T04:22:27;4.82;;;2.80;;
80423;SDS011;69765;47.668;19.326;2023-07-20T04:25:29;7.15;;;4.72;;
80423;SDS011;69765;47.668;19.326;2023-07-20T04:28:35;8.75;;;5.28;;
80423;SDS011;69765;47.668;19.326;2023-07-20T04:31:38;8.48;;;4.53;;
80423;SDS011;69765;47.668;19.326;2023-07-20T04:34:40;7.63;;;3.90;;
80423;SDS011;69765;47.668;19.326;2023-07-20T04:37:43;5.47;;;3.53;;
80423;SDS011;69765;47.668;19.326;2023-07-20T04:40:51;6.15;;;3.53;;
80423;SDS011;69765;47.668;19.326;2023-07-20T04:43:53;7.65;;;3.72;;
80423;SDS011;69765;47.668;19.326;2023-07-20T04:47:05;8.88;;;4.18;;
80423;SDS011;69765;47.668;19.326;2023-07-20T04:50:11;6.57;;;4.15;;
80423;SDS011;69765;47.668;19.326;2023-07-20T04:53:13;5.68;;;3.92;;
80423;SDS011;69765;47.668;19.326;2023-07-20T04:56:16;7.22;;;4.38;;
80423;SDS011;69765;47.668;19.326;2023-07-20T04:59:18;7.20;;;4.07;;
80423;SDS011;69765;47.668;19.326;2023-07-20T05:02:21;5.85;;;3.83;;
80423;SDS011;69765;47.668;19.326;2023-07-20T05:05:23;6.70;;;4.10;;
80423;SDS011;69765;47.668;19.326;2023-07-20T05:08:26;7.30;;;3.42;;
80423;SDS011;69765;47.668;19.326;2023-07-20T05:11:29;6.65;;;4.15;;
80423;SDS011;69765;47.668;19.326;2023-07-20T05:14:31;7.80;;;4.13;;
80423;SDS011;69765;47.668;19.326;2023-07-20T05:17:34;8.45;;;4.20;;
80423;SDS011;69765;47.668;19.326;2023-07-20T05:20:36;8.15;;;3.92;;
80423;SDS011;69765;47.668;19.326;2023-07-20T05:23:39;8.10;;;3.72;;
80423;SDS011;69765;47.668;19.326;2023-07-20T05:26:41;7.68;;;4.28;;
80423;SDS011;69765;47.668;19.326;2023-07-20T05:29:46;12.38;;;5.32;;
80423;SDS011;69765;47.668;19.326;2023-07-20T05:32:49;134.90;;;16.77;;
80423;SDS011;69765;47.668;19.326;2023-07-20T05:35:54;6.93;;;5.15;;
80423;SDS011;69765;47.668;19.326;2023-07-20T05:38:56;7.85;;;4.53;;
80423;SDS011;69765;47.668;19.326;2023-07-20T05:41:59;7.22;;;4.07;;
80423;SDS011;69765;47.668;19.326;2023-07-20T05:45:01;7.65;;;4.53;;
80423;SDS011;69765;47.668;19.326;2023-07-20T05:48:04;5.32;;;4.10;;
80423;SDS011;69765;47.668;19.326;2023-07-20T05:51:07;5.28;;;3.40;;
80423;SDS011;69765;47.668;19.326;2023-07-20T05:54:09;8.27;;;3.63;;
80423;SDS011;69765;47.668;19.326;2023-07-20T05:57:11;5.72;;;3.03;;
80423;SDS011;69765;47.668;19.326;2023-07-20T06:00:14;4.38;;;3.25;;
80423;SDS011;69765;47.668;19.326;2023-07-20T06:03:16;5.55;;;3.80;;
80423;SDS011;69765;47.668;19.326;2023-07-20T06:06:19;6.50;;;3.58;;
80423;SDS011;69765;47.668;19.326;2023-07-20T06:09:23;7.07;;;3.92;;
80423;SDS011;69765;47.668;19.326;2023-07-20T06:12:25;6.40;;;3.92;;
80423;SDS011;69765;47.668;19.326;2023-07-20T06:15:36;5.70;;;3.50;;
80423;SDS011;69765;47.668;19.326;2023-07-20T06:18:38;6.13;;;3.47;;
80423;SDS011;69765;47.668;19.326;2023-07-20T06:21:41;6.72;;;4.15;;
80423;SDS011;69765;47.668;19.326;2023-07-20T06:24:44;5.75;;;3.78;;
80423;SDS011;69765;47.668;19.326;2023-07-20T06:27:46;5.13;;;3.60;;
80423;SDS011;69765;47.668;19.326;2023-07-20T06:30:48;7.35;;;3.95;;
80423;SDS011;69765;47.668;19.326;2023-07-20T06:33:53;10.82;;;4.03;;
80423;SDS011;69765;47.668;19.326;2023-07-20T06:36:55;7.50;;;3.90;;
80423;SDS011;69765;47.668;19.326;2023-07-20T06:39:58;6.93;;;4.00;;
80423;SDS011;69765;47.668;19.326;2023-07-20T06:43:03;7.32;;;3.30;;
80423;SDS011;69765;47.668;19.326;2023-07-20T06:46:09;6.03;;;4.28;;
80423;SDS011;69765;47.668;19.326;2023-07-20T06:49:19;6.53;;;4.10;;
80423;SDS011;69765;47.668;19.326;2023-07-20T06:52:27;12.98;;;4.50;;
80423;SDS011;69765;47.668;19.326;2023-07-20T06:55:29;6.15;;;3.90;;
80423;SDS011;69765;47.668;19.326;2023-07-20T06:58:32;5.60;;;4.25;;
80423;SDS011;69765;47.668;19.326;2023-07-20T07:01:35;5.68;;;3.55;;
80423;SDS011;69765;47.668;19.326;2023-07-20T07:04:38;6.38;;;3.80;;
80423;SDS011;69765;47.668;19.326;2023-07-20T07:07:40;8.68;;;4.03;;
80423;SDS011;69765;47.668;19.326;2023-07-20T07:10:43;6.40;;;3.05;;
80423;SDS011;69765;47.668;19.326;2023-07-20T07:13:46;6.15;;;3.47;;
80423;SDS011;69765;47.668;19.326;2023-07-20T07:16:50;8.32;;;4.25;;
80423;SDS011;69765;47.668;19.326;2023-07-20T07:19:53;4.75;;;4.07;;
80423;SDS011;69765;47.668;19.326;2023-07-20T07:23:00;7.40;;;4.35;;
80423;SDS011;69765;47.668;19.326;2023-07-20T07:26:02;6.68;;;4.35;;
80423;SDS011;69765;47.668;19.326;2023-07-20T07:29:05;5.68;;;3.60;;
80423;SDS011;69765;47.668;19.326;2023-07-20T07:32:09;7.22;;;4.15;;
80423;SDS011;69765;47.668;19.326;2023-07-20T07:35:13;6.70;;;3.92;;
80423;SDS011;69765;47.668;19.326;2023-07-20T07:38:15;8.75;;;3.20;;
80423;SDS011;69765;47.668;19.326;2023-07-20T07:41:37;7.47;;;3.65;;
80423;SDS011;69765;47.668;19.326;2023-07-20T07:44:40;10.50;;;4.40;;
80423;SDS011;69765;47.668;19.326;2023-07-20T07:47:42;7.07;;;4.18;;
80423;SDS011;69765;47.668;19.326;2023-07-20T07:50:45;8.70;;;4.00;;
80423;SDS011;69765;47.668;19.326;2023-07-20T07:53:47;5.70;;;3.75;;
80423;SDS011;69765;47.668;19.326;2023-07-20T07:56:51;7.03;;;4.30;;
80423;SDS011;69765;47.668;19.326;2023-07-20T07:59:53;5.28;;;3.80;;
80423;SDS011;69765;47.668;19.326;2023-07-20T08:02:55;5.90;;;3.42;;
80423;SDS011;69765;47.668;19.326;2023-07-20T08:05:59;7.90;;;4.28;;
80423;SDS011;69765;47.668;19.326;2023-07-20T08:09:02;5.20;;;3.90;;
80423;SDS011;69765;47.668;19.326;2023-07-20T08:12:05;5.95;;;3.78;;
80423;SDS011;69765;47.668;19.326;2023-07-20T08:15:07;5.50;;;3.03;;
80423;SDS011;69765;47.668;19.326;2023-07-20T08:18:12;5.68;;;4.07;;
80423;SDS011;69765;47.668;19.326;2023-07-20T08:21:15;5.40;;;3.55;;
80423;SDS011;69765;47.668;19.326;2023-07-20T08:24:17;6.25;;;3.90;;
80423;SDS011;69765;47.668;19.326;2023-07-20T08:27:19;6.00;;;3.58;;
80423;SDS011;69765;47.668;19.326;2023-07-20T08:30:22;18.58;;;4.78;;
80423;SDS011;69765;47.668;19.326;2023-07-20T08:33:27;8.82;;;3.95;;
80423;SDS011;69765;47.668;19.326;2023-07-20T08:36:31;7.68;;;3.42;;
80423;SDS011;69765;47.668;19.326;2023-07-20T08:39:34;6.18;;;3.65;;
80423;SDS011;69765;47.668;19.326;2023-07-20T08:42:37;9.23;;;2.95;;
80423;SDS011;69765;47.668;19.326;2023-07-20T08:45:41;5.57;;;2.75;;
80423;SDS011;69765;47.668;19.326;2023-07-20T08:48:44;4.68;;;3.40;;
80423;SDS011;69765;47.668;19.326;2023-07-20T08:51:47;5.05;;;3.42;;
80423;SDS011;69765;47.668;19.326;2023-07-20T08:54:50;4.78;;;3.03;;
80423;SDS011;69765;47.668;19.326;2023-07-20T08:57:55;5.57;;;3.28;;
80423;SDS011;69765;47.668;19.326;2023-07-20T09:00:59;3.60;;;3.00;;
80423;SDS011;69765;47.668;19.326;2023-07-20T09:04:03;5.85;;;3.25;;
80423;SDS011;69765;47.668;19.326;2023-07-20T09:07:06;3.30;;;2.63;;
80423;SDS011;69765;47.668;19.326;2023-07-20T09:10:08;5.78;;;3.20;;
80423;SDS011;69765;47.668;19.326;2023-07-20T09:13:15;5.85;;;2.85;;
80423;SDS011;69765;47.668;19.326;2023-07-20T09:16:18;5.75;;;2.50;;
80423;SDS011;69765;47.668;19.326;2023-07-20T09:19:21;6.05;;;2.83;;
80423;SDS011;69765;47.668;19.326;2023-07-20T09:22:29;4.63;;;2.88;;
80423;SDS011;69765;47.668;19.326;2023-07-20T09:25:32;5.45;;;2.90;;
80423;SDS011;69765;47.668;19.326;2023-07-20T09:28:42;4.18;;;3.22;;
80423;SDS011;69765;47.668;19.326;2023-07-20T09:32:01;4.47;;;2.92;;
80423;SDS011;69765;47.668;19.326;2023-07-20T09:35:05;6.78;;;3.22;;
80423;SDS011;69765;47.668;19.326;2023-07-20T09:38:10;8.55;;;3.40;;
80423;SDS011;69765;47.668;19.326;2023-07-20T09:41:15;5.43;;;2.92;;
80423;SDS011;69765;47.668;19.326;2023-07-20T09:44:27;4.70;;;3.40;;
80423;SDS011;69765;47.668;19.326;2023-07-20T09:47:34;6.15;;;3.10;;
80423;SDS011;69765;47.668;19.326;2023-07-20T09:50:40;5.28;;;3.40;;
80423;SDS011;69765;47.668;19.326;2023-07-20T09:53:46;5.63;;;3.40;;
80423;SDS011;69765;47.668;19.326;2023-07-20T09:56:50;6.00;;;3.53;;
80423;SDS011;69765;47.668;19.326;2023-07-20T09:59:53;5.03;;;3.30;;
80423;SDS011;69765;47.668;19.326;2023-07-20T10:02:55;4.35;;;2.88;;
80423;SDS011;69765;47.668;19.326;2023-07-20T10:06:08;4.53;;;3.47;;
80423;SDS011;69765;47.668;19.326;2023-07-20T10:09:15;5.25;;;3.88;;
80423;SDS011;69765;47.668;19.326;2023-07-20T10:12:20;4.38;;;3.60;;
80423;SDS011;69765;47.668;19.326;2023-07-20T10:15:36;7.72;;;3.28;;
80423;SDS011;69765;47.668;19.326;2023-07-20T10:22:00;5.43;;;3.45;;
80423;SDS011;69765;47.668;19.326;2023-07-20T10:25:05;3.60;;;3.10;;
80423;SDS011;69765;47.668;19.326;2023-07-20T10:28:08;5.15;;;2.88;;
80423;SDS011;69765;47.668;19.326;2023-07-20T10:31:12;6.68;;;2.80;;
80423;SDS011;69765;47.668;19.326;2023-07-20T10:34:19;6.38;;;3.20;;
80423;SDS011;69765;47.668;19.326;2023-07-20T10:40:54;7.00;;;3.72;;
80423;SDS011;69765;47.668;19.326;2023-07-20T10:43:58;5.25;;;3.00;;
80423;SDS011;69765;47.668;19.326;2023-07-20T10:47:07;4.35;;;3.05;;
80423;SDS011;69765;47.668;19.326;2023-07-20T10:50:12;3.75;;;2.80;;
80423;SDS011;69765;47.668;19.326;2023-07-20T10:53:18;5.07;;;2.95;;
80423;SDS011;69765;47.668;19.326;2023-07-20T10:56:21;5.85;;;2.75;;
80423;SDS011;69765;47.668;19.326;2023-07-20T11:02:27;5.72;;;2.88;;
80423;SDS011;69765;47.668;19.326;2023-07-20T11:08:39;5.53;;;2.88;;
80423;SDS011;69765;47.668;19.326;2023-07-20T11:11:46;3.92;;;2.70;;
80423;SDS011;69765;47.668;19.326;2023-07-20T11:14:53;5.95;;;2.30;;
80423;SDS011;69765;47.668;19.326;2023-07-20T11:18:11;5.35;;;2.63;;
80423;SDS011;69765;47.668;19.326;2023-07-20T11:21:14;4.22;;;2.83;;
80423;SDS011;69765;47.668;19.326;2023-07-20T11:24:18;5.25;;;2.67;;
80423;SDS011;69765;47.668;19.326;2023-07-20T11:27:20;7.93;;;2.65;;
80423;SDS011;69765;47.668;19.326;2023-07-20T11:30:24;4.90;;;2.90;;
80423;SDS011;69765;47.668;19.326;2023-07-20T11:33:27;3.20;;;2.55;;
80423;SDS011;69765;47.668;19.326;2023-07-20T11:36:30;4.38;;;2.65;;
80423;SDS011;69765;47.668;19.326;2023-07-20T11:39:35;3.95;;;3.05;;
80423;SDS011;69765;47.668;19.326;2023-07-20T11:42:37;7.18;;;2.33;;
80423;SDS011;69765;47.668;19.326;2023-07-20T11:45:43;5.88;;;2.55;;
80423;SDS011;69765;47.668;19.326;2023-07-20T11:48:48;4.43;;;2.45;;
80423;SDS011;69765;47.668;19.326;2023-07-20T11:51:50;4.93;;;2.60;;
80423;SDS011;69765;47.668;19.326;2023-07-20T11:54:53;5.65;;;2.78;;
80423;SDS011;69765;47.668;19.326;2023-07-20T11:58:05;3.55;;;2.85;;
80423;SDS011;69765;47.668;19.326;2023-07-20T12:01:08;5.05;;;3.33;;
80423;SDS011;69765;47.668;19.326;2023-07-20T12:04:11;5.22;;;2.95;;
80423;SDS011;69765;47.668;19.326;2023-07-20T12:07:16;6.07;;;2.55;;
80423;SDS011;69765;47.668;19.326;2023-07-20T12:10:25;4.60;;;2.60;;
80423;SDS011;69765;47.668;19.326;2023-07-20T12:13:35;5.38;;;2.58;;
80423;SDS011;69765;47.668;19.326;2023-07-20T12:16:38;5.93;;;2.70;;
80423;SDS011;69765;47.668;19.326;2023-07-20T12:19:41;5.38;;;2.40;;
80423;SDS011;69765;47.668;19.326;2023-07-20T12:22:43;5.03;;;2.42;;
80423;SDS011;69765;47.668;19.326;2023-07-20T12:25:46;5.95;;;2.33;;
80423;SDS011;69765;47.668;19.326;2023-07-20T12:28:49;7.47;;;2.63;;
80423;SDS011;69765;47.668;19.326;2023-07-20T12:31:52;7.70;;;2.65;;
80423;SDS011;69765;47.668;19.326;2023-07-20T12:34:54;4.15;;;2.53;;
80423;SDS011;69765;47.668;19.326;2023-07-20T12:37:56;8.52;;;2.88;;
80423;SDS011;69765;47.668;19.326;2023-07-20T12:41:00;4.65;;;2.53;;
80423;SDS011;69765;47.668;19.326;2023-07-20T12:44:04;4.15;;;2.33;;
80423;SDS011;69765;47.668;19.326;2023-07-20T12:47:07;7.07;;;2.60;;
80423;SDS011;69765;47.668;19.326;2023-07-20T12:50:10;10.80;;;2.83;;
80423;SDS011;69765;47.668;19.326;2023-07-20T12:53:13;5.53;;;2.55;;
80423;SDS011;69765;47.668;19.326;2023-07-20T12:56:15;4.47;;;2.53;;
80423;SDS011;69765;47.668;19.326;2023-07-20T12:59:20;6.55;;;2.50;;
80423;SDS011;69765;47.668;19.326;2023-07-20T13:02:23;5.05;;;2.15;;
80423;SDS011;69765;47.668;19.326;2023-07-20T13:05:25;6.43;;;2.50;;
80423;SDS011;69765;47.668;19.326;2023-07-20T13:08:33;7.68;;;2.92;;
80423;SDS011;69765;47.668;19.326;2023-07-20T13:11:35;4.10;;;3.08;;
80423;SDS011;69765;47.668;19.326;2023-07-20T13:14:38;6.20;;;2.80;;
80423;SDS011;69765;47.668;19.326;2023-07-20T13:17:40;3.78;;;2.30;;
80423;SDS011;69765;47.668;19.326;2023-07-20T13:20:42;4.75;;;2.50;;
80423;SDS011;69765;47.668;19.326;2023-07-20T13:23:45;4.90;;;2.65;;
80423;SDS011;69765;47.668;19.326;2023-07-20T13:26:48;4.30;;;2.13;;
80423;SDS011;69765;47.668;19.326;2023-07-20T13:29:50;4.82;;;2.55;;
80423;SDS011;69765;47.668;19.326;2023-07-20T13:32:54;4.57;;;2.33;;
80423;SDS011;69765;47.668;19.326;2023-07-20T13:35:57;5.60;;;2.50;;
80423;SDS011;69765;47.668;19.326;2023-07-20T13:38:59;5.18;;;2.47;;
80423;SDS011;69765;47.668;19.326;2023-07-20T13:42:01;2.70;;;2.17;;
80423;SDS011;69765;47.668;19.326;2023-07-20T13:45:07;5.68;;;2.55;;
80423;SDS011;69765;47.668;19.326;2023-07-20T13:48:09;3.00;;;2.05;;
80423;SDS011;69765;47.668;19.326;2023-07-20T13:51:12;3.40;;;2.22;;
80423;SDS011;69765;47.668;19.326;2023-07-20T13:54:28;4.45;;;2.15;;
80423;SDS011;69765;47.668;19.326;2023-07-20T13:57:30;3.83;;;2.40;;
80423;SDS011;69765;47.668;19.326;2023-07-20T14:00:33;3.95;;;2.10;;
80423;SDS011;69765;47.668;19.326;2023-07-20T14:03:37;3.22;;;2.13;;
80423;SDS011;69765;47.668;19.326;2023-07-20T14:06:39;4.63;;;2.20;;
80423;SDS011;69765;47.668;19.326;2023-07-20T14:09:42;5.63;;;2.15;;
80423;SDS011;69765;47.668;19.326;2023-07-20T14:12:48;3.25;;;2.33;;
80423;SDS011;69765;47.668;19.326;2023-07-20T14:15:50;4.07;;;2.13;;
80423;SDS011;69765;47.668;19.326;2023-07-20T14:18:53;3.88;;;2.53;;
80423;SDS011;69765;47.668;19.326;2023-07-20T14:21:55;3.08;;;2.10;;
80423;SDS011;69765;47.668;19.326;2023-07-20T14:25:00;4.18;;;2.20;;
80423;SDS011;69765;47.668;19.326;2023-07-20T14:28:03;4.22;;;2.05;;
80423;SDS011;69765;47.668;19.326;2023-07-20T14:31:05;3.92;;;2.17;;
80423;SDS011;69765;47.668;19.326;2023-07-20T14:34:08;2.72;;;2.13;;
80423;SDS011;69765;47.668;19.326;2023-07-20T14:37:11;3.53;;;2.30;;
80423;SDS011;69765;47.668;19.326;2023-07-20T14:40:15;3.70;;;2.42;;
80423;SDS011;69765;47.668;19.326;2023-07-20T14:43:18;3.97;;;1.90;;
80423;SDS011;69765;47.668;19.326;2023-07-20T14:46:20;5.13;;;1.85;;
80423;SDS011;69765;47.668;19.326;2023-07-20T14:49:25;3.20;;;1.90;;
80423;SDS011;69765;47.668;19.326;2023-07-20T14:52:28;3.97;;;2.33;;
80423;SDS011;69765;47.668;19.326;2023-07-20T14:55:31;3.97;;;1.90;;
80423;SDS011;69765;47.668;19.326;2023-07-20T14:58:36;4.15;;;2.50;;
80423;SDS011;69765;47.668;19.326;2023-07-20T15:01:39;3.97;;;2.13;;
80423;SDS011;69765;47.668;19.326;2023-07-20T15:04:47;8.10;;;2.53;;
80423;SDS011;69765;47.668;19.326;2023-07-20T15:07:51;4.65;;;2.15;;
80423;SDS011;69765;47.668;19.326;2023-07-20T15:10:54;4.03;;;2.33;;
80423;SDS011;69765;47.668;19.326;2023-07-20T15:13:57;4.22;;;2.38;;
80423;SDS011;69765;47.668;19.326;2023-07-20T15:16:59;3.35;;;2.00;;
80423;SDS011;69765;47.668;19.326;2023-07-20T15:20:02;6.18;;;2.25;;
80423;SDS011;69765;47.668;19.326;2023-07-20T15:23:09;3.15;;;1.80;;
80423;SDS011;69765;47.668;19.326;2023-07-20T15:26:12;2.85;;;2.28;;
80423;SDS011;69765;47.668;19.326;2023-07-20T15:29:14;6.55;;;2.88;;
80423;SDS011;69765;47.668;19.326;2023-07-20T15:32:20;2.63;;;2.10;;
80423;SDS011;69765;47.668;19.326;2023-07-20T15:35:23;4.40;;;2.20;;
80423;SDS011;69765;47.668;19.326;2023-07-20T15:38:25;4.38;;;2.45;;
80423;SDS011;69765;47.668;19.326;2023-07-20T15:41:28;3.00;;;2.40;;
80423;SDS011;69765;47.668;19.326;2023-07-20T15:44:32;4.97;;;2.08;;
80423;SDS011;69765;47.668;19.326;2023-07-20T15:47:34;4.30;;;2.50;;
80423;SDS011;69765;47.668;19.326;2023-07-20T15:50:36;3.45;;;2.20;;
80423;SDS011;69765;47.668;19.326;2023-07-20T15:53:40;3.75;;;2.53;;
80423;SDS011;69765;47.668;19.326;2023-07-20T15:56:44;5.68;;;2.00;;
80423;SDS011;69765;47.668;19.326;2023-07-20T15:59:46;4.95;;;2.35;;
80423;SDS011;69765;47.668;19.326;2023-07-20T16:02:49;3.25;;;2.08;;
80423;SDS011;69765;47.668;19.326;2023-07-20T16:05:54;3.90;;;2.10;;
80423;SDS011;69765;47.668;19.326;2023-07-20T16:08:57;3.22;;;2.28;;
80423;SDS011;69765;47.668;19.326;2023-07-20T16:12:00;3.85;;;2.53;;
80423;SDS011;69765;47.668;19.326;2023-07-20T16:15:02;5.57;;;2.38;;
80423;SDS011;69765;47.668;19.326;2023-07-20T16:18:08;5.40;;;2.10;;
80423;SDS011;69765;47.668;19.326;2023-07-20T16:21:10;3.50;;;2.00;;
80423;SDS011;69765;47.668;19.326;2023-07-20T16:24:13;4.70;;;2.30;;
80423;SDS011;69765;47.668;19.326;2023-07-20T16:27:19;3.90;;;2.40;;
80423;SDS011;69765;47.668;19.326;2023-07-20T16:30:21;5.07;;;1.83;;
80423;SDS011;69765;47.668;19.326;2023-07-20T16:33:23;5.45;;;2.20;;
80423;SDS011;69765;47.668;19.326;2023-07-20T16:36:26;4.15;;;2.10;;
80423;SDS011;69765;47.668;19.326;2023-07-20T16:39:29;3.20;;;2.25;;
80423;SDS011;69765;47.668;19.326;2023-07-20T16:42:31;3.60;;;2.20;;
80423;SDS011;69765;47.668;19.326;2023-07-20T16:45:37;3.33;;;2.13;;
80423;SDS011;69765;47.668;19.326;2023-07-20T16:48:40;5.78;;;2.35;;
80423;SDS011;69765;47.668;19.326;2023-07-20T16:51:45;5.82;;;2.63;;
80423;SDS011;69765;47.668;19.326;2023-07-20T16:54:47;4.35;;;2.38;;
80423;SDS011;69765;47.668;19.326;2023-07-20T16:57:50;3.70;;;2.45;;
80423;SDS011;69765;47.668;19.326;2023-07-20T17:00:59;3.63;;;2.17;;
80423;SDS011;69765;47.668;19.326;2023-07-20T17:04:03;4.82;;;2.22;;
80423;SDS011;69765;47.668;19.326;2023-07-20T17:07:06;5.07;;;2.47;;
80423;SDS011;69765;47.668;19.326;2023-07-20T17:10:12;4.10;;;2.10;;
80423;SDS011;69765;47.668;19.326;2023-07-20T17:13:16;5.97;;;2.22;;
80423;SDS011;69765;47.668;19.326;2023-07-20T17:16:18;3.80;;;2.20;;
80423;SDS011;69765;47.668;19.326;2023-07-20T17:19:21;3.25;;;2.15;;
80423;SDS011;69765;47.668;19.326;2023-07-20T17:22:35;4.60;;;2.33;;
80423;SDS011;69765;47.668;19.326;2023-07-20T17:25:41;5.25;;;2.55;;
80423;SDS011;69765;47.668;19.326;2023-07-20T17:28:51;4.53;;;2.42;;
80423;SDS011;69765;47.668;19.326;2023-07-20T17:31:53;5.68;;;2.58;;
80423;SDS011;69765;47.668;19.326;2023-07-20T17:34:56;4.22;;;2.00;;
80423;SDS011;69765;47.668;19.326;2023-07-20T17:37:59;4.95;;;2.53;;
80423;SDS011;69765;47.668;19.326;2023-07-20T17:41:04;2.88;;;2.15;;
80423;SDS011;69765;47.668;19.326;2023-07-20T17:44:07;3.90;;;2.10;;
80423;SDS011;69765;47.668;19.326;2023-07-20T17:47:10;3.83;;;2.00;;
80423;SDS011;69765;47.668;19.326;2023-07-20T17:50:17;3.72;;;2.33;;
80423;SDS011;69765;47.668;19.326;2023-07-20T17:53:19;4.88;;;2.42;;
80423;SDS011;69765;47.668;19.326;2023-07-20T17:56:21;10.85;;;3.05;;
80423;SDS011;69765;47.668;19.326;2023-07-20T17:59:23;8.32;;;2.83;;
80423;SDS011;69765;47.668;19.326;2023-07-20T18:02:27;4.10;;;2.38;;
80423;SDS011;69765;47.668;19.326;2023-07-20T18:05:31;22.08;;;3.72;;
80423;SDS011;69765;47.668;19.326;2023-07-20T18:08:34;6.55;;;2.50;;
80423;SDS011;69765;47.668;19.326;2023-07-20T18:11:38;9.05;;;6.85;;
80423;SDS011;69765;47.668;19.326;2023-07-20T18:14:42;3.92;;;2.25;;
80423;SDS011;69765;47.668;19.326;2023-07-20T18:17:44;3.70;;;2.13;;
80423;SDS011;69765;47.668;19.326;2023-07-20T18:20:47;5.00;;;2.40;;
80423;SDS011;69765;47.668;19.326;2023-07-20T18:23:49;4.88;;;2.33;;
80423;SDS011;69765;47.668;19.326;2023-07-20T18:26:53;3.20;;;2.00;;
80423;SDS011;69765;47.668;19.326;2023-07-20T18:29:55;4.22;;;2.30;;
80423;SDS011;69765;47.668;19.326;2023-07-20T18:32:57;3.88;;;2.50;;